• Join FlightAware (Why Join?)
  • Login
  • US Flag 
08:42PM EDT


 

Airport Tracker/Info


-or-


 

Live Flight TrackerFlight Track Log ✈ UCA3597 ✈ 08-May-2014 ✈ KBGM - KIAD

Flight Track Log - Related Links

Times and Time Zones

All times are in EDT time to prevent confusion due to time zone crossing. See the UCA3597 flight status page for this flight to view local times or setup timezone preferences in your user account.

Time Position Orientation Groundspeed Altitude Reporting Facility
EDT Latitude Longitude Course Direction KTS MPH feet Rate Location/Type
10:53PM 42.1558 -76.0019 218° Southwest 133 153 4,300  Level New York Center
10:54PM 42.1164 -76.0436 218° Southwest 164 189 6,300 1,800 Climbing New York Center
10:55PM 42.0753 -76.0822 215° Southwest 182 209 8,000 1,680 Climbing New York Center
10:56PM 42.0253 -76.1283 214° Southwest 197 227 9,700 1,500 Climbing New York Center
10:57PM 41.9839 -76.1697 217° Southwest 202 232 11,000 1,500 Climbing New York Center
10:58PM 41.9278 -76.2097 208° Southwest 207 238 12,800 1,560 Climbing New York Center
10:59PM 41.8722 -76.2442 205° Southwest 212 244 14,200 1,440 Climbing New York Center
11:00PM 41.8186 -76.2786 206° Southwest 218 251 15,700 840 Climbing New York Center
11:01PM 41.7628 -76.3103 203° Southwest 227 261 16,000 120 Climbing New York Center
11:02PM 41.6922 -76.3517 204° Southwest 256 295 16,000 -60 Level New York Center
11:03PM 41.6150 -76.3978 204° Southwest 276 318 15,900 -60 Descending New York Center
11:04PM 41.5444 -76.4392 204° Southwest 281 323 15,900  Level New York Center
11:05PM 41.4758 -76.4803 204° Southwest 281 323 15,900  Level New York Center
11:06PM 41.4094 -76.5189 204° Southwest 287 330 15,900  Level New York Center
11:07PM 41.3322 -76.5650 204° Southwest 287 330 15,900  Level New York Center
11:08PM 41.2611 -76.6086 205° Southwest 287 330 15,900  Level New York Center
11:09PM 41.1883 -76.6492 203° Southwest 287 330 15,900  Level New York Center
11:10PM 41.1194 -76.6928 205° Southwest 287 330 15,900  Level New York Center
11:11PM 41.0467 -76.7358 204° Southwest 287 330 15,900  Level New York Center
11:12PM 40.9758 -76.7764 203° Southwest 287 330 15,900  Level New York Center
11:13PM 40.9047 -76.8194 205° Southwest 287 330 15,900  Level New York Center
11:14PM 40.8425 -76.8553 204° Southwest 287 330 15,900  Level New York Center
11:15PM 40.7592 -76.8972 201° Southwest 294 338 15,900  Level New York Center
11:16PM 40.6914 -76.9183 193° South 294 338 15,900  Level New York Center
11:17PM 40.6067 -76.9436 193° South 287 330 15,900  Level New York Center
11:18PM 40.5367 -76.9647 193° South 282 325 15,900  Level New York Center
11:19PM 40.4519 -76.9925 194° South 287 330 15,900  Level New York Center
11:20PM 40.3800 -77.0133 192° South 287 330 15,900  Level New York Center
11:21PM 40.2972 -77.0414 194° South 287 330 15,900 -300 Level New York Center
11:22PM 40.2250 -77.0619 192° South 287 330 15,400 -840 Descending New York Center
11:23PM 40.1339 -77.0889 193° South 293 337 14,300 -1,080 Descending New York Center
11:26PM 39.9500 -77.1500 194° South 287 330 11,900 -1,020 Descending Potomac TRACON
11:26PM 39.8833 -77.1667 191° South 283 326 11,000 -1,020 Descending Potomac TRACON
11:27PM 39.8000 -77.2000 197° South 282 325 10,000 -1,020 Descending Potomac TRACON
11:28PM 39.7333 -77.2333 201° Southwest 275 316 9,100 -1,020 Descending Potomac TRACON
11:29PM 39.6667 -77.2667 201° Southwest 263 303 8,100 -1,020 Descending Potomac TRACON
11:30PM 39.5833 -77.3000 197° South 251 289 7,000 -1,020 Descending Potomac TRACON
11:31PM 39.5333 -77.3167 194° South 251 289 6,000 -600 Descending Potomac TRACON
11:32PM 39.4667 -77.3500 201° Southwest 245 282 5,900 -60 Descending Potomac TRACON
11:33PM 39.4000 -77.4000 210° Southwest 247 284 5,900 -540 Level Potomac TRACON
11:34PM 39.3500 -77.4500 218° Southwest 253 291 4,900 -900 Descending Potomac TRACON
11:35PM 39.2833 -77.4500 180° South 245 282 4,100 -840 Descending Potomac TRACON
11:36PM 39.2167 -77.4500 180° South 243 280 3,300 -660 Descending Potomac TRACON
11:37PM 39.1500 -77.4500 180° South 213 245 2,900 -300 Descending Potomac TRACON
11:38PM 39.1000 -77.4500 180° South 167 192 2,700 -540 Descending Potomac TRACON
11:39PM 39.0500 -77.4500 180° South 160 184 1,800 -780 Descending Potomac TRACON
11:40PM 39.0167 -77.4667 201° Southwest 121 139 1,200 -600 Descending Potomac TRACON
11:41PM 39.0000 -77.4667 180° South 107 123 700 -600 Descending Potomac TRACON